NHX01T EBBR-EBOS
Flight info
| Callsign | NHX01T |
|---|---|
| Flight time | 0h 35m |
| Altitude | 1500 |
| Route | CA AT GB TE ALTER BOSSY |
| Aircraft | EC45/L-VGD/C |
Departure
| Time | 2026-05-04 12:30 |
|---|---|
| Airport | Brussels Airport (EBBR) |
Arrival
| Time | 2026-05-04 13:06 |
|---|---|
| Airport | Ostend-Bruges International Airport (EBOS) |
| Time | Latitude | Longitude | Altitude | Speed | Heading |
|---|---|---|---|---|---|
| 2026-05-04 12:23 | 50.89556 | 4.46882 | 124 ft | 0 kts | 309° |
| 2026-05-04 12:28 | 50.89585 | 4.46864 | 137 ft | 7 kts | 303° |
| 2026-05-04 12:28 | 50.89583 | 4.46787 | 138 ft | 7 kts | 260° |
| 2026-05-04 12:28 | 50.89584 | 4.46724 | 138 ft | 5 kts | 304° |
| 2026-05-04 12:29 | 50.89615 | 4.46677 | 140 ft | 8 kts | 335° |
| 2026-05-04 12:29 | 50.89660 | 4.46640 | 136 ft | 4 kts | 335° |
| 2026-05-04 12:29 | 50.89678 | 4.46643 | 128 ft | 0 kts | 247° |
| 2026-05-04 12:30 | 50.89780 | 4.46527 | 264 ft | 53 kts | 318° |
| 2026-05-04 12:30 | 50.90183 | 4.45905 | 386 ft | 101 kts | 306° |
| 2026-05-04 12:30 | 50.90448 | 4.44852 | 602 ft | 108 kts | 271° |
| 2026-05-04 12:30 | 50.90389 | 4.43628 | 777 ft | 114 kts | 261° |
| 2026-05-04 12:31 | 50.90293 | 4.42368 | 904 ft | 114 kts | 261° |
| 2026-05-04 12:31 | 50.90177 | 4.41181 | 945 ft | 107 kts | 259° |
| 2026-05-04 12:31 | 50.90037 | 4.40013 | 967 ft | 108 kts | 258° |
| 2026-05-04 12:31 | 50.89907 | 4.38847 | 973 ft | 107 kts | 260° |
| 2026-05-04 12:32 | 50.89796 | 4.37656 | 962 ft | 115 kts | 262° |
| 2026-05-04 12:32 | 50.89613 | 4.34894 | 983 ft | 132 kts | 262° |
| 2026-05-04 12:32 | 50.89382 | 4.33481 | 981 ft | 131 kts | 248° |
| 2026-05-04 12:33 | 50.88959 | 4.32200 | 983 ft | 131 kts | 240° |
| 2026-05-04 12:33 | 50.88513 | 4.30939 | 980 ft | 131 kts | 240° |
| 2026-05-04 12:33 | 50.88061 | 4.29678 | 982 ft | 131 kts | 240° |
| 2026-05-04 12:33 | 50.87606 | 4.28425 | 982 ft | 131 kts | 240° |
| 2026-05-04 12:34 | 50.87149 | 4.27183 | 982 ft | 131 kts | 239° |
| 2026-05-04 12:34 | 50.86696 | 4.25932 | 980 ft | 131 kts | 243° |
| 2026-05-04 12:34 | 50.86629 | 4.24512 | 982 ft | 133 kts | 283° |
| 2026-05-04 12:34 | 50.86989 | 4.23191 | 981 ft | 131 kts | 290° |
| 2026-05-04 12:35 | 50.87162 | 4.21777 | 981 ft | 131 kts | 274° |
| 2026-05-04 12:35 | 50.87218 | 4.20332 | 982 ft | 131 kts | 274° |
| 2026-05-04 12:35 | 50.87312 | 4.18892 | 980 ft | 131 kts | 276° |
| 2026-05-04 12:35 | 50.87396 | 4.17457 | 979 ft | 131 kts | 274° |
| 2026-05-04 12:36 | 50.87524 | 4.16028 | 982 ft | 131 kts | 278° |
| 2026-05-04 12:36 | 50.87652 | 4.14597 | 978 ft | 131 kts | 278° |
| 2026-05-04 12:36 | 50.87813 | 4.13178 | 977 ft | 131 kts | 281° |
| 2026-05-04 12:36 | 50.87966 | 4.11753 | 975 ft | 131 kts | 277° |
| 2026-05-04 12:37 | 50.88086 | 4.10321 | 977 ft | 131 kts | 278° |
| 2026-05-04 12:37 | 50.88295 | 4.08915 | 974 ft | 132 kts | 289° |
| 2026-05-04 12:37 | 50.88788 | 4.07688 | 975 ft | 132 kts | 309° |
| 2026-05-04 12:37 | 50.89412 | 4.06628 | 976 ft | 132 kts | 314° |
| 2026-05-04 12:38 | 50.90080 | 4.05639 | 972 ft | 131 kts | 318° |
| 2026-05-04 12:38 | 50.90783 | 4.04714 | 972 ft | 131 kts | 322° |
| 2026-05-04 12:38 | 50.91571 | 4.04024 | 974 ft | 132 kts | 340° |
| 2026-05-04 12:38 | 50.92492 | 4.03865 | 972 ft | 133 kts | 2° |
| 2026-05-04 12:39 | 50.93400 | 4.04053 | 975 ft | 133 kts | 8° |
| 2026-05-04 12:39 | 50.94299 | 4.03830 | 1023 ft | 133 kts | 335° |
| 2026-05-04 12:39 | 50.94949 | 4.02842 | 1277 ft | 129 kts | 307° |
| 2026-05-04 12:39 | 50.95504 | 4.01718 | 1384 ft | 130 kts | 308° |
| 2026-05-04 12:40 | 50.96074 | 4.00586 | 1438 ft | 131 kts | 308° |
| 2026-05-04 12:40 | 50.96639 | 3.99456 | 1458 ft | 130 kts | 308° |
| 2026-05-04 12:40 | 50.97196 | 3.98326 | 1464 ft | 130 kts | 307° |
| 2026-05-04 12:40 | 50.97741 | 3.97193 | 1468 ft | 129 kts | 307° |
| 2026-05-04 12:41 | 50.98276 | 3.96059 | 1472 ft | 130 kts | 307° |
| 2026-05-04 12:41 | 50.98810 | 3.94912 | 1471 ft | 129 kts | 306° |
| 2026-05-04 12:41 | 50.99357 | 3.93773 | 1472 ft | 130 kts | 308° |
| 2026-05-04 12:41 | 50.99918 | 3.92657 | 1468 ft | 130 kts | 306° |
| 2026-05-04 12:42 | 51.00315 | 3.91385 | 1476 ft | 128 kts | 288° |
| 2026-05-04 12:42 | 51.00436 | 3.89988 | 1468 ft | 128 kts | 271° |
| 2026-05-04 12:42 | 51.00292 | 3.88581 | 1480 ft | 129 kts | 258° |
| 2026-05-04 12:42 | 51.00099 | 3.87189 | 1473 ft | 129 kts | 259° |
| 2026-05-04 12:43 | 50.99924 | 3.85794 | 1467 ft | 130 kts | 261° |
| 2026-05-04 12:43 | 50.99756 | 3.84390 | 1465 ft | 129 kts | 261° |
| 2026-05-04 12:43 | 50.99598 | 3.82975 | 1470 ft | 130 kts | 262° |
| 2026-05-04 12:43 | 50.99453 | 3.81558 | 1474 ft | 129 kts | 262° |
| 2026-05-04 12:44 | 50.99317 | 3.80147 | 1410 ft | 129 kts | 262° |
| 2026-05-04 12:44 | 50.99346 | 3.78735 | 1290 ft | 127 kts | 282° |
| 2026-05-04 12:44 | 50.99628 | 3.77418 | 1249 ft | 127 kts | 289° |
| 2026-05-04 12:44 | 50.99940 | 3.76095 | 1271 ft | 128 kts | 292° |
| 2026-05-04 12:45 | 51.00290 | 3.74798 | 1270 ft | 127 kts | 295° |
| 2026-05-04 12:45 | 51.00677 | 3.73551 | 1274 ft | 128 kts | 298° |
| 2026-05-04 12:45 | 51.01114 | 3.72304 | 1276 ft | 127 kts | 300° |
| 2026-05-04 12:45 | 51.01575 | 3.71105 | 1274 ft | 127 kts | 302° |
| 2026-05-04 12:46 | 51.02022 | 3.69902 | 1266 ft | 128 kts | 298° |
| 2026-05-04 12:46 | 51.02417 | 3.68621 | 1278 ft | 127 kts | 296° |
| 2026-05-04 12:46 | 51.02780 | 3.67386 | 1265 ft | 125 kts | 295° |
| 2026-05-04 12:46 | 51.03154 | 3.66113 | 1269 ft | 128 kts | 296° |
| 2026-05-04 12:47 | 51.03516 | 3.64840 | 1122 ft | 125 kts | 293° |
| 2026-05-04 12:47 | 51.03834 | 3.63566 | 1037 ft | 124 kts | 291° |
| 2026-05-04 12:47 | 51.04122 | 3.62261 | 1003 ft | 126 kts | 289° |
| 2026-05-04 12:47 | 51.04381 | 3.60935 | 980 ft | 126 kts | 288° |
| 2026-05-04 12:48 | 51.04623 | 3.59590 | 974 ft | 128 kts | 287° |
| 2026-05-04 12:48 | 51.04857 | 3.58231 | 973 ft | 127 kts | 286° |
| 2026-05-04 12:48 | 51.05082 | 3.56882 | 977 ft | 127 kts | 285° |
| 2026-05-04 12:48 | 51.05298 | 3.55522 | 975 ft | 126 kts | 285° |
| 2026-05-04 12:49 | 51.05505 | 3.54161 | 976 ft | 127 kts | 284° |
| 2026-05-04 12:49 | 51.05746 | 3.52826 | 968 ft | 126 kts | 290° |
| 2026-05-04 12:49 | 51.06083 | 3.51547 | 982 ft | 126 kts | 294° |
| 2026-05-04 12:49 | 51.06431 | 3.50245 | 973 ft | 127 kts | 293° |
| 2026-05-04 12:50 | 51.06761 | 3.48968 | 973 ft | 126 kts | 294° |
| 2026-05-04 12:50 | 51.07149 | 3.47707 | 979 ft | 127 kts | 300° |
| 2026-05-04 12:50 | 51.07625 | 3.46530 | 973 ft | 126 kts | 304° |
| 2026-05-04 12:50 | 51.08121 | 3.45383 | 973 ft | 126 kts | 304° |
| 2026-05-04 12:51 | 51.08620 | 3.44225 | 984 ft | 128 kts | 304° |
| 2026-05-04 12:51 | 51.09109 | 3.43063 | 973 ft | 127 kts | 303° |
| 2026-05-04 12:51 | 51.09598 | 3.41888 | 981 ft | 127 kts | 303° |
| 2026-05-04 12:51 | 51.10075 | 3.40705 | 976 ft | 127 kts | 302° |
| 2026-05-04 12:52 | 51.10578 | 3.39552 | 980 ft | 126 kts | 310° |
| 2026-05-04 12:52 | 51.11241 | 3.38638 | 979 ft | 128 kts | 326° |
| 2026-05-04 12:52 | 51.12008 | 3.37932 | 978 ft | 127 kts | 332° |
| 2026-05-04 12:52 | 51.12756 | 3.37179 | 980 ft | 128 kts | 317° |
| 2026-05-04 12:53 | 51.13233 | 3.35996 | 989 ft | 127 kts | 294° |
| 2026-05-04 12:53 | 51.13590 | 3.34721 | 989 ft | 128 kts | 295° |
| 2026-05-04 12:53 | 51.13967 | 3.33434 | 990 ft | 128 kts | 295° |
| 2026-05-04 12:53 | 51.14346 | 3.32171 | 990 ft | 127 kts | 296° |
| 2026-05-04 12:54 | 51.14700 | 3.30872 | 992 ft | 127 kts | 292° |
| 2026-05-04 12:54 | 51.14995 | 3.29550 | 993 ft | 127 kts | 290° |
| 2026-05-04 12:54 | 51.15242 | 3.28199 | 993 ft | 127 kts | 288° |
| 2026-05-04 12:54 | 51.15546 | 3.26874 | 997 ft | 127 kts | 294° |
| 2026-05-04 12:55 | 51.16030 | 3.25718 | 998 ft | 126 kts | 312° |
| 2026-05-04 12:55 | 51.16649 | 3.24715 | 995 ft | 127 kts | 315° |
| 2026-05-04 12:55 | 51.17279 | 3.23725 | 1000 ft | 127 kts | 316° |
| 2026-05-04 12:55 | 51.17951 | 3.22839 | 998 ft | 127 kts | 326° |
| 2026-05-04 12:56 | 51.18734 | 3.22210 | 997 ft | 126 kts | 338° |
| 2026-05-04 12:56 | 51.19578 | 3.21853 | 1000 ft | 125 kts | 347° |
| 2026-05-04 12:56 | 51.20446 | 3.21622 | 998 ft | 127 kts | 351° |
| 2026-05-04 12:56 | 51.21323 | 3.21580 | 995 ft | 128 kts | 5° |
| 2026-05-04 12:57 | 51.22107 | 3.22249 | 998 ft | 133 kts | 42° |
| 2026-05-04 12:57 | 51.22418 | 3.23619 | 1014 ft | 137 kts | 94° |
| 2026-05-04 12:57 | 51.21868 | 3.24740 | 989 ft | 135 kts | 157° |
| 2026-05-04 12:57 | 51.20974 | 3.24634 | 1000 ft | 129 kts | 209° |
| 2026-05-04 12:58 | 51.20464 | 3.23534 | 996 ft | 125 kts | 255° |
| 2026-05-04 12:58 | 51.20267 | 3.22214 | 1001 ft | 124 kts | 261° |
| 2026-05-04 12:58 | 51.20127 | 3.20871 | 1003 ft | 123 kts | 264° |
| 2026-05-04 12:58 | 51.20177 | 3.19529 | 995 ft | 124 kts | 298° |
| 2026-05-04 12:59 | 51.20839 | 3.18710 | 1002 ft | 119 kts | 326° |
| 2026-05-04 12:59 | 51.21314 | 3.17649 | 994 ft | 120 kts | 291° |
| 2026-05-04 12:59 | 51.21312 | 3.16309 | 987 ft | 126 kts | 258° |
| 2026-05-04 12:59 | 51.21010 | 3.15000 | 991 ft | 125 kts | 250° |
| 2026-05-04 13:00 | 51.20616 | 3.13771 | 988 ft | 124 kts | 244° |
| 2026-05-04 13:00 | 51.20298 | 3.12495 | 988 ft | 123 kts | 256° |
| 2026-05-04 13:00 | 51.20046 | 3.11194 | 990 ft | 123 kts | 255° |
| 2026-05-04 13:00 | 51.19790 | 3.09885 | 992 ft | 123 kts | 255° |
| 2026-05-04 13:01 | 51.19548 | 3.08567 | 986 ft | 124 kts | 258° |
| 2026-05-04 13:01 | 51.19348 | 3.07226 | 995 ft | 122 kts | 260° |
| 2026-05-04 13:01 | 51.19187 | 3.06036 | 1001 ft | 102 kts | 262° |
| 2026-05-04 13:01 | 51.19063 | 3.04899 | 990 ft | 106 kts | 266° |
| 2026-05-04 13:02 | 51.19000 | 3.03736 | 996 ft | 105 kts | 271° |
| 2026-05-04 13:02 | 51.18970 | 3.02582 | 993 ft | 104 kts | 271° |
| 2026-05-04 13:02 | 51.18958 | 3.01427 | 993 ft | 105 kts | 272° |
| 2026-05-04 13:02 | 51.18966 | 3.00277 | 994 ft | 105 kts | 274° |
| 2026-05-04 13:03 | 51.18991 | 2.99124 | 993 ft | 103 kts | 276° |
| 2026-05-04 13:03 | 51.19035 | 2.97972 | 994 ft | 104 kts | 277° |
| 2026-05-04 13:03 | 51.19097 | 2.96823 | 994 ft | 104 kts | 278° |
| 2026-05-04 13:03 | 51.19178 | 2.95671 | 992 ft | 105 kts | 280° |
| 2026-05-04 13:04 | 51.19279 | 2.94519 | 993 ft | 105 kts | 282° |
| 2026-05-04 13:04 | 51.19574 | 2.93483 | 971 ft | 103 kts | 308° |
| 2026-05-04 13:04 | 51.20018 | 2.92610 | 871 ft | 99 kts | 313° |
| 2026-05-04 13:04 | 51.20456 | 2.91794 | 738 ft | 95 kts | 308° |
| 2026-05-04 13:05 | 51.20608 | 2.90828 | 515 ft | 87 kts | 253° |
| 2026-05-04 13:05 | 51.20384 | 2.89940 | 312 ft | 88 kts | 242° |
| 2026-05-04 13:05 | 51.20211 | 2.89027 | 141 ft | 80 kts | 258° |
| 2026-05-04 13:05 | 51.20087 | 2.88253 | 50 ft | 66 kts | 264° |
| 2026-05-04 13:06 | 51.19998 | 2.87645 | 42 ft | 41 kts | 271° |
| 2026-05-04 13:06 | 51.19953 | 2.87342 | 32 ft | 20 kts | 299° |
| 2026-05-04 13:06 | 51.20032 | 2.87228 | 14 ft | 15 kts | 318° |
| 2026-05-04 13:06 | 51.20036 | 2.87223 | 14 ft | 0 kts | 319° |
| 2026-05-04 13:08 | 51.20058 | 2.87197 | 21 ft | 6 kts | 322° |
| 2026-05-04 13:08 | 51.20095 | 2.87156 | 22 ft | 9 kts | 322° |
| 2026-05-04 13:08 | 51.20090 | 2.87034 | 22 ft | 15 kts | 254° |
| 2026-05-04 13:08 | 51.20070 | 2.86913 | 22 ft | 19 kts | 254° |
| 2026-05-04 13:09 | 51.20034 | 2.86674 | 25 ft | 25 kts | 255° |
| 2026-05-04 13:09 | 51.19994 | 2.86410 | 26 ft | 22 kts | 255° |
| 2026-05-04 13:09 | 51.19963 | 2.86200 | 21 ft | 16 kts | 255° |
| 2026-05-04 13:09 | 51.19947 | 2.86092 | 17 ft | 6 kts | 255° |
| 2026-05-04 13:10 | 51.19973 | 2.86057 | 20 ft | 7 kts | 3° |
| 2026-05-04 13:10 | 51.20022 | 2.86064 | 21 ft | 7 kts | 4° |
| 2026-05-04 13:10 | 51.20076 | 2.86072 | 23 ft | 9 kts | 3° |
| 2026-05-04 13:10 | 51.20108 | 2.86043 | 22 ft | 7 kts | 240° |
| 2026-05-04 13:11 | 51.20085 | 2.85984 | 19 ft | 3 kts | 317° |
| 2026-05-04 13:11 | 51.20105 | 2.85966 | 23 ft | 5 kts | 315° |
| 2026-05-04 13:11 | 51.20118 | 2.85942 | 21 ft | 2 kts | 315° |
| 2026-05-04 13:11 | 51.20123 | 2.85931 | 15 ft | 1 kts | 236° |
| 2026-05-04 13:12 | 51.20123 | 2.85930 | 12 ft | 0 kts | 233° |